sensor_id;sensor_type;location;lat;lon;timestamp;pressure;altitude;pressure_sealevel;temperature;humidity
41264;BME280;26998;48.714;9.414;2023-03-25T00:01:11;98578.03;;;9.34;100.00
41264;BME280;26998;48.714;9.414;2023-03-25T00:03:40;98561.59;;;9.31;100.00
41264;BME280;26998;48.714;9.414;2023-03-25T00:06:08;98562.44;;;9.31;100.00
41264;BME280;26998;48.714;9.414;2023-03-25T00:08:36;98587.47;;;9.30;100.00
41264;BME280;26998;48.714;9.414;2023-03-25T00:11:03;98627.03;;;9.27;100.00
41264;BME280;26998;48.714;9.414;2023-03-25T00:13:30;98657.66;;;9.09;100.00
41264;BME280;26998;48.714;9.414;2023-03-25T00:15:57;98769.72;;;8.94;100.00
41264;BME280;26998;48.714;9.414;2023-03-25T00:18:26;98941.50;;;8.62;100.00
41264;BME280;26998;48.714;9.414;2023-03-25T00:20:53;99020.94;;;8.21;100.00
41264;BME280;26998;48.714;9.414;2023-03-25T00:23:20;99051.09;;;7.90;100.00
41264;BME280;26998;48.714;9.414;2023-03-25T00:25:47;99035.38;;;7.72;100.00
41264;BME280;26998;48.714;9.414;2023-03-25T00:28:15;99041.13;;;7.61;100.00
41264;BME280;26998;48.714;9.414;2023-03-25T00:30:43;99096.31;;;7.59;100.00
41264;BME280;26998;48.714;9.414;2023-03-25T00:33:10;99142.88;;;7.55;100.00
41264;BME280;26998;48.714;9.414;2023-03-25T00:35:36;99147.25;;;7.48;100.00
41264;BME280;26998;48.714;9.414;2023-03-25T00:38:04;99135.59;;;7.40;100.00
41264;BME280;26998;48.714;9.414;2023-03-25T00:40:31;99184.63;;;7.38;100.00
41264;BME280;26998;48.714;9.414;2023-03-25T00:42:58;99189.31;;;7.36;100.00
41264;BME280;26998;48.714;9.414;2023-03-25T00:45:24;99190.47;;;7.33;100.00
41264;BME280;26998;48.714;9.414;2023-03-25T00:47:51;99176.34;;;7.33;100.00
41264;BME280;26998;48.714;9.414;2023-03-25T00:50:17;99176.69;;;7.30;100.00
41264;BME280;26998;48.714;9.414;2023-03-25T00:52:44;99203.75;;;7.33;100.00
41264;BME280;26998;48.714;9.414;2023-03-25T00:55:10;99199.59;;;7.31;100.00
41264;BME280;26998;48.714;9.414;2023-03-25T00:57:36;99206.41;;;7.25;100.00
41264;BME280;26998;48.714;9.414;2023-03-25T01:00:06;99238.00;;;7.20;100.00
41264;BME280;26998;48.714;9.414;2023-03-25T01:02:33;99269.09;;;7.20;100.00
41264;BME280;26998;48.714;9.414;2023-03-25T01:05:00;99302.78;;;7.19;100.00
41264;BME280;26998;48.714;9.414;2023-03-25T01:07:27;99336.38;;;7.20;100.00
41264;BME280;26998;48.714;9.414;2023-03-25T01:09:54;99350.31;;;7.14;100.00
41264;BME280;26998;48.714;9.414;2023-03-25T01:12:20;98647.16;;;7.11;100.00
41264;BME280;26998;48.714;9.414;2023-03-25T01:14:47;98587.75;;;7.19;100.00
41264;BME280;26998;48.714;9.414;2023-03-25T01:17:13;98583.31;;;7.20;100.00
41264;BME280;26998;48.714;9.414;2023-03-25T01:19:40;98571.28;;;7.24;100.00
41264;BME280;26998;48.714;9.414;2023-03-25T01:22:06;98563.47;;;7.22;100.00
41264;BME280;26998;48.714;9.414;2023-03-25T01:24:33;98550.84;;;7.24;100.00
41264;BME280;26998;48.714;9.414;2023-03-25T01:26:59;98562.84;;;7.20;100.00
41264;BME280;26998;48.714;9.414;2023-03-25T01:29:26;98568.16;;;7.20;100.00
41264;BME280;26998;48.714;9.414;2023-03-25T01:31:53;98570.84;;;7.20;100.00
41264;BME280;26998;48.714;9.414;2023-03-25T01:34:19;98572.00;;;7.17;100.00
41264;BME280;26998;48.714;9.414;2023-03-25T01:36:46;98575.22;;;7.13;100.00
41264;BME280;26998;48.714;9.414;2023-03-25T01:39:15;98589.34;;;7.13;100.00
41264;BME280;26998;48.714;9.414;2023-03-25T01:41:43;98600.50;;;7.09;100.00
41264;BME280;26998;48.714;9.414;2023-03-25T01:46:45;98570.97;;;7.04;100.00
41264;BME280;26998;48.714;9.414;2023-03-25T01:49:19;98584.94;;;7.06;100.00
41264;BME280;26998;48.714;9.414;2023-03-25T01:51:50;98583.91;;;7.07;100.00
41264;BME280;26998;48.714;9.414;2023-03-25T01:54:18;98592.91;;;7.06;100.00
41264;BME280;26998;48.714;9.414;2023-03-25T01:56:46;98573.03;;;7.02;100.00
41264;BME280;26998;48.714;9.414;2023-03-25T01:59:15;98578.50;;;7.00;100.00
41264;BME280;26998;48.714;9.414;2023-03-25T02:01:46;98573.19;;;7.00;100.00
41264;BME280;26998;48.714;9.414;2023-03-25T02:04:15;98612.31;;;7.06;100.00
41264;BME280;26998;48.714;9.414;2023-03-25T02:06:51;98634.41;;;7.07;100.00
41264;BME280;26998;48.714;9.414;2023-03-25T02:09:23;98633.56;;;7.06;100.00
41264;BME280;26998;48.714;9.414;2023-03-25T02:11:51;98624.50;;;7.01;100.00
41264;BME280;26998;48.714;9.414;2023-03-25T02:14:20;98623.66;;;7.00;100.00
41264;BME280;26998;48.714;9.414;2023-03-25T02:17:05;98624.03;;;6.97;100.00
41264;BME280;26998;48.714;9.414;2023-03-25T02:19:39;98617.91;;;6.97;100.00
41264;BME280;26998;48.714;9.414;2023-03-25T02:25:42;98611.66;;;6.89;100.00
41264;BME280;26998;48.714;9.414;2023-03-25T02:37:21;98643.59;;;7.04;100.00
41264;BME280;26998;48.714;9.414;2023-03-25T02:40:05;98636.44;;;7.05;100.00
41264;BME280;26998;48.714;9.414;2023-03-25T02:43:01;98641.75;;;7.05;100.00
41264;BME280;26998;48.714;9.414;2023-03-25T02:45:36;98641.53;;;7.06;100.00
41264;BME280;26998;48.714;9.414;2023-03-25T02:48:10;98643.69;;;7.11;100.00
41264;BME280;26998;48.714;9.414;2023-03-25T02:50:43;98654.94;;;7.13;100.00
41264;BME280;26998;48.714;9.414;2023-03-25T02:53:16;98669.34;;;7.18;100.00
41264;BME280;26998;48.714;9.414;2023-03-25T02:55:44;98671.28;;;7.25;100.00
41264;BME280;26998;48.714;9.414;2023-03-25T02:58:14;98673.13;;;7.24;100.00
41264;BME280;26998;48.714;9.414;2023-03-25T03:00:42;98680.16;;;7.32;100.00
41264;BME280;26998;48.714;9.414;2023-03-25T03:03:09;98681.38;;;7.44;100.00
41264;BME280;26998;48.714;9.414;2023-03-25T03:05:42;98686.88;;;7.43;100.00
41264;BME280;26998;48.714;9.414;2023-03-25T03:08:31;98670.13;;;7.42;100.00
41264;BME280;26998;48.714;9.414;2023-03-25T03:11:12;98646.72;;;7.37;100.00
41264;BME280;26998;48.714;9.414;2023-03-25T03:16:30;98637.19;;;7.28;100.00
41264;BME280;26998;48.714;9.414;2023-03-25T03:24:31;98593.72;;;7.21;100.00
41264;BME280;26998;48.714;9.414;2023-03-25T03:27:14;98574.84;;;7.16;100.00
41264;BME280;26998;48.714;9.414;2023-03-25T03:29:56;98591.88;;;7.07;100.00
41264;BME280;26998;48.714;9.414;2023-03-25T03:32:32;98608.28;;;6.96;100.00
41264;BME280;26998;48.714;9.414;2023-03-25T03:35:07;98615.50;;;6.87;100.00
41264;BME280;26998;48.714;9.414;2023-03-25T03:37:39;98604.41;;;6.83;100.00
41264;BME280;26998;48.714;9.414;2023-03-25T03:40:11;98622.34;;;6.81;100.00
41264;BME280;26998;48.714;9.414;2023-03-25T03:42:59;98610.25;;;6.79;100.00
41264;BME280;26998;48.714;9.414;2023-03-25T03:45:36;98668.94;;;6.69;100.00
41264;BME280;26998;48.714;9.414;2023-03-25T03:48:09;98679.44;;;6.62;100.00
41264;BME280;26998;48.714;9.414;2023-03-25T03:50:44;98706.69;;;6.56;100.00
41264;BME280;26998;48.714;9.414;2023-03-25T03:53:19;98741.41;;;6.55;100.00
41264;BME280;26998;48.714;9.414;2023-03-25T03:55:51;98731.13;;;6.52;100.00
41264;BME280;26998;48.714;9.414;2023-03-25T03:58:25;98749.72;;;6.52;100.00
41264;BME280;26998;48.714;9.414;2023-03-25T04:01:05;98768.34;;;6.43;100.00
41264;BME280;26998;48.714;9.414;2023-03-25T04:03:38;98785.63;;;6.39;100.00
41264;BME280;26998;48.714;9.414;2023-03-25T04:07:00;98788.41;;;6.46;100.00
41264;BME280;26998;48.714;9.414;2023-03-25T04:09:16;98820.13;;;6.39;100.00
41264;BME280;26998;48.714;9.414;2023-03-25T04:11:49;98844.84;;;6.32;100.00
41264;BME280;26998;48.714;9.414;2023-03-25T04:14:18;98862.81;;;6.30;100.00
41264;BME280;26998;48.714;9.414;2023-03-25T04:16:46;98885.00;;;6.29;100.00
41264;BME280;26998;48.714;9.414;2023-03-25T04:19:12;98910.72;;;6.28;100.00
41264;BME280;26998;48.714;9.414;2023-03-25T04:21:39;98936.78;;;6.24;100.00
41264;BME280;26998;48.714;9.414;2023-03-25T04:24:05;98971.13;;;6.18;100.00
41264;BME280;26998;48.714;9.414;2023-03-25T04:26:32;98964.50;;;6.14;100.00
41264;BME280;26998;48.714;9.414;2023-03-25T04:29:00;98987.53;;;6.13;100.00
41264;BME280;26998;48.714;9.414;2023-03-25T04:31:28;99005.47;;;6.11;100.00
41264;BME280;26998;48.714;9.414;2023-03-25T04:33:56;99027.19;;;6.07;100.00
41264;BME280;26998;48.714;9.414;2023-03-25T04:36:24;99028.19;;;6.06;100.00
41264;BME280;26998;48.714;9.414;2023-03-25T04:38:50;99019.22;;;6.07;100.00
41264;BME280;26998;48.714;9.414;2023-03-25T04:41:17;99021.72;;;6.08;100.00
41264;BME280;26998;48.714;9.414;2023-03-25T04:43:44;99056.03;;;6.10;100.00
41264;BME280;26998;48.714;9.414;2023-03-25T04:46:12;99056.38;;;6.07;100.00
41264;BME280;26998;48.714;9.414;2023-03-25T04:48:40;99068.31;;;6.03;100.00
41264;BME280;26998;48.714;9.414;2023-03-25T04:51:07;99080.41;;;5.97;100.00
41264;BME280;26998;48.714;9.414;2023-03-25T04:53:33;99111.03;;;5.91;100.00
41264;BME280;26998;48.714;9.414;2023-03-25T04:56:00;99130.59;;;5.90;100.00
41264;BME280;26998;48.714;9.414;2023-03-25T04:58:27;99157.75;;;5.84;100.00
41264;BME280;26998;48.714;9.414;2023-03-25T05:00:53;99169.50;;;5.73;100.00
41264;BME280;26998;48.714;9.414;2023-03-25T05:03:20;99192.19;;;5.68;100.00
41264;BME280;26998;48.714;9.414;2023-03-25T05:05:46;99205.38;;;5.60;100.00
41264;BME280;26998;48.714;9.414;2023-03-25T05:08:13;99241.16;;;5.55;100.00
41264;BME280;26998;48.714;9.414;2023-03-25T05:10:39;99255.25;;;5.56;100.00
41264;BME280;26998;48.714;9.414;2023-03-25T05:13:07;99273.50;;;5.59;100.00
41264;BME280;26998;48.714;9.414;2023-03-25T05:15:35;99261.38;;;5.56;100.00
41264;BME280;26998;48.714;9.414;2023-03-25T05:18:01;99263.19;;;5.56;100.00
41264;BME280;26998;48.714;9.414;2023-03-25T05:20:28;99263.88;;;5.58;100.00
41264;BME280;26998;48.714;9.414;2023-03-25T05:22:54;99254.88;;;5.51;100.00
41264;BME280;26998;48.714;9.414;2023-03-25T05:25:21;99272.28;;;5.53;100.00
41264;BME280;26998;48.714;9.414;2023-03-25T05:27:48;99277.50;;;5.63;100.00
41264;BME280;26998;48.714;9.414;2023-03-25T05:30:14;99269.72;;;5.70;100.00
41264;BME280;26998;48.714;9.414;2023-03-25T05:32:41;99257.34;;;5.78;100.00
41264;BME280;26998;48.714;9.414;2023-03-25T05:35:08;99243.63;;;5.83;100.00
41264;BME280;26998;48.714;9.414;2023-03-25T05:37:34;99245.66;;;5.89;100.00
41264;BME280;26998;48.714;9.414;2023-03-25T05:40:01;99247.84;;;5.94;100.00
41264;BME280;26998;48.714;9.414;2023-03-25T05:42:40;99242.91;;;5.99;100.00
41264;BME280;26998;48.714;9.414;2023-03-25T05:45:08;99230.16;;;6.03;100.00
41264;BME280;26998;48.714;9.414;2023-03-25T05:47:35;99230.19;;;6.11;100.00
41264;BME280;26998;48.714;9.414;2023-03-25T05:50:01;99214.13;;;6.20;100.00
41264;BME280;26998;48.714;9.414;2023-03-25T05:52:28;99191.09;;;6.29;100.00
41264;BME280;26998;48.714;9.414;2023-03-25T05:54:54;99185.66;;;6.39;100.00
41264;BME280;26998;48.714;9.414;2023-03-25T05:57:21;99157.63;;;6.53;100.00
41264;BME280;26998;48.714;9.414;2023-03-25T05:59:47;99140.84;;;6.60;100.00
41264;BME280;26998;48.714;9.414;2023-03-25T06:02:15;99122.78;;;6.64;100.00
41264;BME280;26998;48.714;9.414;2023-03-25T06:04:42;99091.56;;;6.66;100.00
41264;BME280;26998;48.714;9.414;2023-03-25T06:07:10;99088.22;;;6.72;100.00
41264;BME280;26998;48.714;9.414;2023-03-25T06:09:36;99084.25;;;6.76;100.00
41264;BME280;26998;48.714;9.414;2023-03-25T06:12:03;99067.97;;;6.79;100.00
41264;BME280;26998;48.714;9.414;2023-03-25T06:14:30;99070.59;;;6.87;100.00
41264;BME280;26998;48.714;9.414;2023-03-25T06:16:56;99055.34;;;6.89;100.00
41264;BME280;26998;48.714;9.414;2023-03-25T06:19:23;99035.72;;;6.90;100.00
41264;BME280;26998;48.714;9.414;2023-03-25T06:21:49;98998.88;;;6.96;100.00
41264;BME280;26998;48.714;9.414;2023-03-25T06:24:16;98959.28;;;7.01;100.00
41264;BME280;26998;48.714;9.414;2023-03-25T06:26:43;98956.97;;;6.98;100.00
41264;BME280;26998;48.714;9.414;2023-03-25T06:29:09;98946.19;;;6.99;100.00
41264;BME280;26998;48.714;9.414;2023-03-25T06:31:36;98899.50;;;7.05;100.00
41264;BME280;26998;48.714;9.414;2023-03-25T06:34:02;98891.47;;;7.13;100.00
41264;BME280;26998;48.714;9.414;2023-03-25T06:36:29;98865.41;;;7.16;100.00
41264;BME280;26998;48.714;9.414;2023-03-25T06:38:55;98868.34;;;7.22;100.00
41264;BME280;26998;48.714;9.414;2023-03-25T06:41:22;98875.72;;;7.34;100.00
41264;BME280;26998;48.714;9.414;2023-03-25T06:43:48;98831.41;;;7.50;100.00
41264;BME280;26998;48.714;9.414;2023-03-25T06:46:15;98770.91;;;7.52;100.00
41264;BME280;26998;48.714;9.414;2023-03-25T06:48:42;98727.88;;;7.63;100.00
41264;BME280;26998;48.714;9.414;2023-03-25T06:51:08;98731.94;;;7.74;100.00
41264;BME280;26998;48.714;9.414;2023-03-25T06:53:35;98704.03;;;7.84;100.00
41264;BME280;26998;48.714;9.414;2023-03-25T06:56:02;98674.47;;;8.09;100.00
41264;BME280;26998;48.714;9.414;2023-03-25T06:58:28;98658.41;;;8.17;100.00
41264;BME280;26998;48.714;9.414;2023-03-25T07:00:55;98642.13;;;8.27;100.00
41264;BME280;26998;48.714;9.414;2023-03-25T07:03:21;98653.31;;;8.22;100.00
41264;BME280;26998;48.714;9.414;2023-03-25T07:05:48;98647.25;;;8.07;100.00
41264;BME280;26998;48.714;9.414;2023-03-25T07:08:15;98643.19;;;8.11;100.00
41264;BME280;26998;48.714;9.414;2023-03-25T07:10:41;98662.63;;;8.12;100.00
41264;BME280;26998;48.714;9.414;2023-03-25T07:13:08;98649.31;;;8.12;100.00
41264;BME280;26998;48.714;9.414;2023-03-25T07:15:36;98609.84;;;8.15;100.00
41264;BME280;26998;48.714;9.414;2023-03-25T07:18:03;98617.88;;;8.22;100.00
41264;BME280;26998;48.714;9.414;2023-03-25T07:20:29;98612.50;;;8.15;100.00
41264;BME280;26998;48.714;9.414;2023-03-25T07:22:56;98637.22;;;8.09;100.00
41264;BME280;26998;48.714;9.414;2023-03-25T07:25:22;98627.38;;;8.09;100.00
41264;BME280;26998;48.714;9.414;2023-03-25T07:27:49;98603.63;;;8.08;100.00
41264;BME280;26998;48.714;9.414;2023-03-25T07:30:16;98588.59;;;8.00;100.00
41264;BME280;26998;48.714;9.414;2023-03-25T07:32:44;98613.63;;;8.06;100.00
41264;BME280;26998;48.714;9.414;2023-03-25T07:35:10;98645.19;;;8.09;100.00
41264;BME280;26998;48.714;9.414;2023-03-25T07:37:37;98613.19;;;8.02;100.00
41264;BME280;26998;48.714;9.414;2023-03-25T07:40:04;98605.97;;;8.18;100.00
41264;BME280;26998;48.714;9.414;2023-03-25T07:42:30;98604.91;;;8.33;100.00
41264;BME280;26998;48.714;9.414;2023-03-25T07:44:57;98617.75;;;8.45;100.00
41264;BME280;26998;48.714;9.414;2023-03-25T07:47:24;98619.72;;;8.58;100.00
41264;BME280;26998;48.714;9.414;2023-03-25T07:49:50;98593.91;;;8.58;100.00
41264;BME280;26998;48.714;9.414;2023-03-25T07:52:17;98620.94;;;8.55;100.00
41264;BME280;26998;48.714;9.414;2023-03-25T07:54:43;98571.31;;;8.75;100.00
41264;BME280;26998;48.714;9.414;2023-03-25T07:57:10;98562.38;;;8.90;100.00
41264;BME280;26998;48.714;9.414;2023-03-25T07:59:37;98517.31;;;8.95;100.00
41264;BME280;26998;48.714;9.414;2023-03-25T08:02:03;98506.06;;;8.99;100.00
41264;BME280;26998;48.714;9.414;2023-03-25T08:04:30;98485.44;;;9.15;100.00
41264;BME280;26998;48.714;9.414;2023-03-25T08:06:56;98477.72;;;9.33;100.00
41264;BME280;26998;48.714;9.414;2023-03-25T08:09:23;98468.34;;;9.44;100.00
41264;BME280;26998;48.714;9.414;2023-03-25T08:11:49;98483.19;;;9.66;100.00
41264;BME280;26998;48.714;9.414;2023-03-25T08:14:16;98475.38;;;9.71;100.00
41264;BME280;26998;48.714;9.414;2023-03-25T08:16:43;98463.53;;;9.94;100.00
41264;BME280;26998;48.714;9.414;2023-03-25T08:19:09;98420.81;;;10.07;100.00
41264;BME280;26998;48.714;9.414;2023-03-25T08:21:36;98412.59;;;10.15;100.00
41264;BME280;26998;48.714;9.414;2023-03-25T08:24:02;98397.81;;;10.33;100.00
41264;BME280;26998;48.714;9.414;2023-03-25T08:26:30;98392.84;;;10.50;100.00
41264;BME280;26998;48.714;9.414;2023-03-25T08:28:57;98371.75;;;9.88;100.00
41264;BME280;26998;48.714;9.414;2023-03-25T08:31:24;98429.66;;;9.88;100.00
41264;BME280;26998;48.714;9.414;2023-03-25T08:33:51;98399.03;;;10.24;100.00
41264;BME280;26998;48.714;9.414;2023-03-25T08:36:17;98395.13;;;10.46;100.00
41264;BME280;26998;48.714;9.414;2023-03-25T08:38:45;98375.28;;;10.80;100.00
41264;BME280;26998;48.714;9.414;2023-03-25T08:41:12;98393.50;;;10.45;100.00
41264;BME280;26998;48.714;9.414;2023-03-25T08:43:38;98394.13;;;10.07;100.00
41264;BME280;26998;48.714;9.414;2023-03-25T08:46:05;98404.59;;;9.76;100.00
41264;BME280;26998;48.714;9.414;2023-03-25T08:48:32;98459.97;;;9.60;100.00
41264;BME280;26998;48.714;9.414;2023-03-25T08:50:58;98536.38;;;9.27;100.00
41264;BME280;26998;48.714;9.414;2023-03-25T08:53:25;98578.28;;;9.05;100.00
41264;BME280;26998;48.714;9.414;2023-03-25T08:55:53;98700.97;;;8.90;100.00
41264;BME280;26998;48.714;9.414;2023-03-25T08:58:20;98697.16;;;8.56;100.00
41264;BME280;26998;48.714;9.414;2023-03-25T09:00:48;98751.41;;;8.70;100.00
41264;BME280;26998;48.714;9.414;2023-03-25T09:03:14;98734.47;;;8.77;100.00
41264;BME280;26998;48.714;9.414;2023-03-25T09:05:41;98677.31;;;9.01;100.00
41264;BME280;26998;48.714;9.414;2023-03-25T09:08:07;98642.13;;;9.41;100.00
41264;BME280;26998;48.714;9.414;2023-03-25T09:10:34;98626.53;;;9.44;100.00
41264;BME280;26998;48.714;9.414;2023-03-25T09:13:03;98631.72;;;9.24;100.00
41264;BME280;26998;48.714;9.414;2023-03-25T09:15:30;98667.88;;;9.06;100.00
41264;BME280;26998;48.714;9.414;2023-03-25T09:17:57;98726.88;;;8.96;100.00
41264;BME280;26998;48.714;9.414;2023-03-25T09:20:23;98780.19;;;8.96;100.00
41264;BME280;26998;48.714;9.414;2023-03-25T09:22:50;98716.47;;;8.79;100.00
41264;BME280;26998;48.714;9.414;2023-03-25T09:25:16;98717.03;;;8.96;100.00
41264;BME280;26998;48.714;9.414;2023-03-25T09:27:43;98711.25;;;8.93;100.00
41264;BME280;26998;48.714;9.414;2023-03-25T09:30:10;98726.59;;;8.91;100.00
41264;BME280;26998;48.714;9.414;2023-03-25T09:32:37;98730.19;;;8.98;100.00
41264;BME280;26998;48.714;9.414;2023-03-25T09:35:04;98715.19;;;8.97;100.00
41264;BME280;26998;48.714;9.414;2023-03-25T09:37:31;98761.19;;;9.06;100.00
41264;BME280;26998;48.714;9.414;2023-03-25T09:39:57;98767.50;;;8.98;100.00
41264;BME280;26998;48.714;9.414;2023-03-25T09:42:34;98773.81;;;9.18;100.00
41264;BME280;26998;48.714;9.414;2023-03-25T09:47:57;98788.28;;;8.88;100.00
41264;BME280;26998;48.714;9.414;2023-03-25T09:50:28;98796.81;;;9.19;100.00
41264;BME280;26998;48.714;9.414;2023-03-25T09:53:00;98782.56;;;9.55;100.00
41264;BME280;26998;48.714;9.414;2023-03-25T09:55:33;98765.47;;;9.49;100.00
41264;BME280;26998;48.714;9.414;2023-03-25T09:58:22;98781.66;;;9.69;100.00
41264;BME280;26998;48.714;9.414;2023-03-25T10:01:00;98689.47;;;9.67;100.00
41264;BME280;26998;48.714;9.414;2023-03-25T10:03:36;98696.00;;;9.99;100.00
41264;BME280;26998;48.714;9.414;2023-03-25T10:06:20;98673.13;;;9.83;100.00
41264;BME280;26998;48.714;9.414;2023-03-25T10:09:14;98639.31;;;9.56;100.00
41264;BME280;26998;48.714;9.414;2023-03-25T10:11:53;98655.06;;;9.79;100.00
41264;BME280;26998;48.714;9.414;2023-03-25T10:14:26;98635.38;;;9.86;100.00
41264;BME280;26998;48.714;9.414;2023-03-25T10:17:12;98608.38;;;10.23;100.00
41264;BME280;26998;48.714;9.414;2023-03-25T10:20:02;98457.13;;;10.88;100.00
41264;BME280;26998;48.714;9.414;2023-03-25T10:25:28;98442.94;;;10.94;100.00
41264;BME280;26998;48.714;9.414;2023-03-25T10:27:56;98457.00;;;11.21;100.00
41264;BME280;26998;48.714;9.414;2023-03-25T10:30:39;98403.97;;;11.88;100.00
41264;BME280;26998;48.714;9.414;2023-03-25T10:33:20;98366.28;;;12.33;100.00
41264;BME280;26998;48.714;9.414;2023-03-25T10:35:50;98349.28;;;12.02;100.00
41264;BME280;26998;48.714;9.414;2023-03-25T10:38:22;98358.06;;;12.10;100.00
41264;BME280;26998;48.714;9.414;2023-03-25T10:43:34;98314.78;;;12.31;100.00
41264;BME280;26998;48.714;9.414;2023-03-25T10:48:34;98325.38;;;11.76;100.00
41264;BME280;26998;48.714;9.414;2023-03-25T10:51:10;98307.63;;;11.82;100.00
41264;BME280;26998;48.714;9.414;2023-03-25T10:53:39;98306.78;;;11.81;100.00
41264;BME280;26998;48.714;9.414;2023-03-25T10:56:10;98280.28;;;11.73;100.00
41264;BME280;26998;48.714;9.414;2023-03-25T10:58:40;98276.56;;;11.99;100.00
41264;BME280;26998;48.714;9.414;2023-03-25T11:01:13;98256.41;;;12.15;100.00
41264;BME280;26998;48.714;9.414;2023-03-25T11:03:42;98245.69;;;12.15;100.00
41264;BME280;26998;48.714;9.414;2023-03-25T11:06:20;98253.06;;;12.01;100.00
41264;BME280;26998;48.714;9.414;2023-03-25T11:09:12;98227.03;;;11.40;100.00
41264;BME280;26998;48.714;9.414;2023-03-25T11:11:38;98251.03;;;11.28;100.00
41264;BME280;26998;48.714;9.414;2023-03-25T11:14:06;98249.50;;;11.07;100.00
41264;BME280;26998;48.714;9.414;2023-03-25T11:16:39;98265.00;;;10.98;100.00
41264;BME280;26998;48.714;9.414;2023-03-25T11:19:15;98301.31;;;10.74;100.00
41264;BME280;26998;48.714;9.414;2023-03-25T11:21:46;98353.19;;;10.53;100.00
41264;BME280;26998;48.714;9.414;2023-03-25T11:24:17;98376.81;;;10.56;100.00
41264;BME280;26998;48.714;9.414;2023-03-25T11:26:45;98410.88;;;10.74;100.00
41264;BME280;26998;48.714;9.414;2023-03-25T11:29:17;98411.53;;;11.21;100.00
41264;BME280;26998;48.714;9.414;2023-03-25T11:31:45;98313.00;;;12.25;100.00
41264;BME280;26998;48.714;9.414;2023-03-25T11:34:21;98254.59;;;12.64;100.00
41264;BME280;26998;48.714;9.414;2023-03-25T11:37:01;98253.63;;;12.77;100.00
41264;BME280;26998;48.714;9.414;2023-03-25T11:39:34;98244.34;;;12.61;100.00
41264;BME280;26998;48.714;9.414;2023-03-25T11:42:14;98225.25;;;12.20;100.00
41264;BME280;26998;48.714;9.414;2023-03-25T11:44:52;98211.53;;;12.47;100.00
41264;BME280;26998;48.714;9.414;2023-03-25T11:47:24;98222.34;;;12.22;100.00
41264;BME280;26998;48.714;9.414;2023-03-25T11:49:52;98220.72;;;12.02;100.00
41264;BME280;26998;48.714;9.414;2023-03-25T11:52:30;98210.97;;;11.65;100.00
41264;BME280;26998;48.714;9.414;2023-03-25T11:55:02;98236.47;;;11.92;100.00
41264;BME280;26998;48.714;9.414;2023-03-25T11:57:36;98264.09;;;11.11;100.00
41264;BME280;26998;48.714;9.414;2023-03-25T12:00:26;98293.59;;;11.29;100.00
41264;BME280;26998;48.714;9.414;2023-03-25T12:05:40;98322.94;;;11.43;100.00
41264;BME280;26998;48.714;9.414;2023-03-25T12:08:13;98291.94;;;11.60;100.00
41264;BME280;26998;48.714;9.414;2023-03-25T12:10:53;98292.25;;;11.70;100.00
41264;BME280;26998;48.714;9.414;2023-03-25T12:13:57;98282.41;;;12.33;100.00
41264;BME280;26998;48.714;9.414;2023-03-25T12:16:43;98262.22;;;12.48;100.00
41264;BME280;26998;48.714;9.414;2023-03-25T12:22:11;98214.63;;;13.58;100.00
41264;BME280;26998;48.714;9.414;2023-03-25T12:24:53;98205.31;;;13.96;100.00
41264;BME280;26998;48.714;9.414;2023-03-25T12:27:50;98193.50;;;12.84;100.00
41264;BME280;26998;48.714;9.414;2023-03-25T12:33:19;98181.78;;;12.67;100.00
41264;BME280;26998;48.714;9.414;2023-03-25T12:38:53;98188.44;;;12.76;100.00
41264;BME280;26998;48.714;9.414;2023-03-25T12:41:35;98190.81;;;12.84;98.94
41264;BME280;26998;48.714;9.414;2023-03-25T12:44:22;98182.22;;;12.64;98.10
41264;BME280;26998;48.714;9.414;2023-03-25T12:47:26;98180.03;;;12.42;100.00
41264;BME280;26998;48.714;9.414;2023-03-25T13:00:37;98195.13;;;12.07;97.60
41264;BME280;26998;48.714;9.414;2023-03-25T13:03:34;98218.63;;;11.61;100.00
41264;BME280;26998;48.714;9.414;2023-03-25T13:09:10;98214.69;;;11.14;100.00
41264;BME280;26998;48.714;9.414;2023-03-25T13:11:56;98227.41;;;10.86;100.00
41264;BME280;26998;48.714;9.414;2023-03-25T13:15:13;98232.44;;;10.76;100.00
41264;BME280;26998;48.714;9.414;2023-03-25T13:17:28;98263.94;;;10.99;100.00
41264;BME280;26998;48.714;9.414;2023-03-25T13:19:58;98303.88;;;11.83;100.00
41264;BME280;26998;48.714;9.414;2023-03-25T13:22:31;98343.78;;;12.16;100.00
41264;BME280;26998;48.714;9.414;2023-03-25T13:25:03;98327.50;;;11.92;100.00
41264;BME280;26998;48.714;9.414;2023-03-25T13:27:33;98319.19;;;11.50;100.00
41264;BME280;26998;48.714;9.414;2023-03-25T13:30:02;98319.50;;;11.61;100.00
41264;BME280;26998;48.714;9.414;2023-03-25T13:32:49;98331.91;;;11.80;100.00
41264;BME280;26998;48.714;9.414;2023-03-25T13:37:56;98311.69;;;11.34;100.00
41264;BME280;26998;48.714;9.414;2023-03-25T13:40:27;98300.94;;;11.41;100.00
41264;BME280;26998;48.714;9.414;2023-03-25T13:43:06;98297.25;;;11.35;100.00
41264;BME280;26998;48.714;9.414;2023-03-25T13:46:13;98282.53;;;11.76;100.00
41264;BME280;26998;48.714;9.414;2023-03-25T13:48:54;98237.22;;;12.18;100.00
41264;BME280;26998;48.714;9.414;2023-03-25T13:51:22;98227.88;;;11.90;99.48
41264;BME280;26998;48.714;9.414;2023-03-25T14:07:58;98207.50;;;12.56;97.70
41264;BME280;26998;48.714;9.414;2023-03-25T14:13:37;98199.88;;;12.71;95.25
41264;BME280;26998;48.714;9.414;2023-03-25T14:16:07;98200.88;;;13.01;96.22
41264;BME280;26998;48.714;9.414;2023-03-25T14:19:02;98203.41;;;12.54;91.66
41264;BME280;26998;48.714;9.414;2023-03-25T14:24:06;98204.41;;;12.41;88.87
41264;BME280;26998;48.714;9.414;2023-03-25T14:26:41;98205.81;;;12.43;88.87
41264;BME280;26998;48.714;9.414;2023-03-25T14:29:20;98197.53;;;12.45;91.19
41264;BME280;26998;48.714;9.414;2023-03-25T14:32:04;98216.91;;;12.29;91.52
41264;BME280;26998;48.714;9.414;2023-03-25T14:34:31;98231.34;;;11.66;97.50
41264;BME280;26998;48.714;9.414;2023-03-25T14:42:07;98208.88;;;11.23;100.00
41264;BME280;26998;48.714;9.414;2023-03-25T14:44:46;98213.13;;;11.31;100.00